Time;durP1;ratioP1;P1;durP2;ratioP2;P2;SDS_P1;SDS_P2;PMS_P1;PMS_P2;Temp;Humidity;BMP_temperature;BMP_pressure;BME280_temperature;BME280_humidity;BME280_pressure;Samples;Min_cycle;Max_cycle;Signal;HPM_P1;HPM_P2
2023/09/13 00:00:10;;;;;;;;;17.60;17.40;;;;;22.74;31.90;99171.56;5088801;27;8905;-74
2023/09/13 00:03:02;;;;;;;;;17.60;16.60;;;;;22.80;31.61;99171.94;5089002;28;8971;-76
2023/09/13 00:05:31;;;;;;;;;18.20;16.20;;;;;22.86;31.50;99167.91;5089875;28;8881;-75
2023/09/13 00:08:00;;;;;;;;;20.20;18.40;;;;;22.96;31.40;99174.31;5055558;28;8856;-76
2023/09/13 00:10:29;;;;;;;;;19.60;17.20;;;;;23.03;31.33;99171.13;5071102;28;8835;-77
2023/09/13 00:12:58;;;;;;;;;15.80;15.40;;;;;23.10;31.74;99167.00;5089364;28;8855;-75
2023/09/13 00:15:28;;;;;;;;;18.40;17.80;;;;;23.16;31.34;99163.81;5092083;28;8883;-75
2023/09/13 00:17:57;;;;;;;;;16.40;16.40;;;;;23.18;31.01;99168.06;5095713;28;8832;-75
2023/09/13 00:20:27;;;;;;;;;17.80;17.60;;;;;23.22;31.28;99165.16;5055399;28;9634;-75
2023/09/13 00:22:56;;;;;;;;;15.20;13.60;;;;;23.25;31.31;99163.09;5070629;28;8851;-75
2023/09/13 00:25:25;;;;;;;;;15.20;14.60;;;;;23.25;30.88;99160.41;5088604;28;8856;-74
2023/09/13 00:27:54;;;;;;;;;18.20;17.00;;;;;23.26;30.90;99161.25;5088986;28;8944;-75
2023/09/13 00:30:23;;;;;;;;;16.40;15.40;;;;;23.26;31.01;99161.25;5036488;28;8940;-75
2023/09/13 00:32:53;;;;;;;;;14.60;14.20;;;;;23.26;31.14;99163.94;5085383;27;8931;-75
2023/09/13 00:35:22;;;;;;;;;18.20;17.00;;;;;23.23;31.08;99154.31;5086982;28;8872;-74
2023/09/13 00:37:51;;;;;;;;;15.40;15.20;;;;;23.22;30.95;99157.97;5072813;28;8857;-75
2023/09/13 00:40:20;;;;;;;;;13.40;13.40;;;;;23.20;30.68;99154.56;5124334;28;9019;-75
2023/09/13 00:42:49;;;;;;;;;14.00;13.60;;;;;23.18;30.90;99168.06;5073342;28;8864;-76
2023/09/13 00:45:18;;;;;;;;;17.80;17.00;;;;;23.18;30.90;99164.56;5109119;28;8856;-74
2023/09/13 00:47:47;;;;;;;;;19.60;19.20;;;;;23.19;30.82;99163.59;5112733;28;8856;-75
2023/09/13 00:50:18;;;;;;;;;15.80;15.00;;;;;23.21;30.60;99155.44;5084747;28;9691;-75
2023/09/13 00:52:48;;;;;;;;;14.20;13.00;;;;;23.16;30.82;99167.34;5072736;28;8877;-76
2023/09/13 00:55:19;;;;;;;;;15.00;12.60;;;;;23.07;31.56;99157.38;5023491;28;8862;-75
2023/09/13 00:57:50;;;;;;;;;18.40;16.40;;;;;23.10;32.18;99153.59;5072826;28;8967;-75
2023/09/13 01:00:20;;;;;;;;;20.60;19.40;;;;;23.00;32.89;99159.69;5040170;28;8826;-77
2023/09/13 01:02:50;;;;;;;;;21.60;18.80;;;;;22.92;33.08;99161.25;5072795;28;8872;-76
2023/09/13 01:05:20;;;;;;;;;17.00;14.80;;;;;22.71;32.62;99161.06;5072656;28;9556;-76
2023/09/13 01:07:49;;;;;;;;;12.40;11.40;;;;;22.67;32.88;99160.47;5091981;28;8968;-75
2023/09/13 01:10:19;;;;;;;;;15.40;13.00;;;;;22.65;32.73;99157.06;5057109;28;8841;-75
2023/09/13 01:12:48;;;;;;;;;18.40;15.00;;;;;22.42;33.19;99150.78;5072356;28;8841;-76
2023/09/13 01:15:17;;;;;;;;;14.40;12.00;;;;;22.47;32.84;99159.34;5089326;28;9575;-75
2023/09/13 01:17:55;;;;;;;;;16.00;16.00;;;;;22.24;33.38;99166.44;5072382;28;8853;-75
2023/09/13 01:20:45;;;;;;;;;14.20;13.40;;;;;22.16;33.74;99158.09;5071706;28;8878;-75
2023/09/13 01:23:36;;;;;;;;;15.60;12.40;;;;;22.11;33.40;99153.13;5088703;28;8836;-77
2023/09/13 01:26:37;;;;;;;;;15.20;14.60;;;;;22.15;33.76;99159.94;5048797;28;8855;-75
2023/09/13 01:29:14;;;;;;;;;11.20;11.00;;;;;22.10;33.28;99164.78;5009162;28;9639;-75
2023/09/13 01:31:43;;;;;;;;;16.20;15.20;;;;;22.13;33.89;99169.06;5009284;28;8925;-76
2023/09/13 01:34:12;;;;;;;;;15.60;15.20;;;;;22.22;34.59;99162.97;4960950;28;8867;-75
2023/09/13 01:36:41;;;;;;;;;15.20;15.20;;;;;22.31;33.82;99158.81;5008884;28;9672;-78
2023/09/13 01:39:10;;;;;;;;;18.60;18.60;;;;;22.36;35.09;99160.16;4990994;28;8927;-77
2023/09/13 01:41:45;;;;;;;;;14.60;14.60;;;;;22.46;33.41;99160.31;5008235;28;8998;-77
2023/09/13 01:44:17;;;;;;;;;16.60;15.80;;;;;22.43;32.40;99157.88;5008941;28;8965;-77
2023/09/13 01:46:47;;;;;;;;;14.40;11.80;;;;;22.40;32.14;99152.75;5008554;28;8871;-78
2023/09/13 01:49:18;;;;;;;;;14.00;13.80;;;;;22.32;32.65;99152.50;5008714;28;8865;-76
2023/09/13 01:51:47;;;;;;;;;11.40;11.00;;;;;22.29;32.27;99163.41;4991800;28;8883;-76
2023/09/13 01:54:19;;;;;;;;;17.80;14.00;;;;;22.18;33.47;99156.16;4976243;28;8871;-76
2023/09/13 01:56:48;;;;;;;;;16.40;15.00;;;;;22.18;33.07;99151.69;5023967;28;8846;-76
2023/09/13 01:59:19;;;;;;;;;15.60;14.60;;;;;22.16;33.68;99150.91;5051039;28;8850;-75
2023/09/13 02:01:47;;;;;;;;;16.60;14.80;;;;;22.16;33.91;99148.25;5051527;28;8874;-75
2023/09/13 02:04:16;;;;;;;;;13.60;12.40;;;;;22.20;33.64;99149.75;5067865;28;8865;-75
2023/09/13 02:06:45;;;;;;;;;14.60;13.40;;;;;22.16;33.89;99148.25;5098190;28;8882;-75
2023/09/13 02:09:16;;;;;;;;;14.40;14.40;;;;;22.13;33.88;99148.50;5109508;28;8869;-75
2023/09/13 02:11:45;;;;;;;;;16.00;14.80;;;;;22.02;33.86;99151.13;5112208;27;8836;-74
2023/09/13 02:14:14;;;;;;;;;13.80;13.20;;;;;22.05;33.56;99153.53;5089282;28;8866;-78
2023/09/13 02:16:44;;;;;;;;;16.00;14.40;;;;;22.08;33.54;99142.63;5072225;28;8909;-78
2023/09/13 02:19:13;;;;;;;;;14.00;13.00;;;;;22.06;33.52;99144.56;5106567;28;8855;-75
2023/09/13 02:21:42;;;;;;;;;14.40;12.20;;;;;21.89;34.11;99139.63;5088718;28;8875;-77
2023/09/13 02:24:11;;;;;;;;;15.60;15.60;;;;;21.90;34.40;99136.84;5071602;28;8914;-77
2023/09/13 02:26:40;;;;;;;;;13.60;13.60;;;;;21.94;34.04;99132.97;5090490;28;9010;-75
2023/09/13 02:29:09;;;;;;;;;13.00;13.00;;;;;21.95;35.07;99139.16;5105099;27;8820;-75
2023/09/13 02:31:38;;;;;;;;;13.40;13.40;;;;;22.00;35.07;99139.69;5107173;28;8859;-76
2023/09/13 02:34:09;;;;;;;;;16.20;15.60;;;;;21.99;35.46;99146.00;5115169;28;8912;-74
2023/09/13 02:36:38;;;;;;;;;18.00;17.20;;;;;21.97;35.64;99143.41;5098823;28;8856;-77
2023/09/13 02:39:30;;;;;;;;;16.00;15.20;;;;;22.00;35.48;99145.03;5089833;28;8994;-77
2023/09/13 02:41:59;;;;;;;;;17.60;17.00;;;;;21.92;35.52;99148.28;5089265;28;8898;-77
2023/09/13 02:44:27;;;;;;;;;17.60;17.20;;;;;21.88;35.64;99148.63;5094012;28;8847;-76
2023/09/13 02:46:56;;;;;;;;;15.60;15.40;;;;;21.84;35.78;99159.56;5038390;28;8860;-77
2023/09/13 02:49:27;;;;;;;;;18.80;18.60;;;;;21.77;36.26;99160.97;5121645;27;8829;-76
2023/09/13 02:51:56;;;;;;;;;18.00;16.80;;;;;21.75;36.04;99156.69;5128464;27;8995;-77
2023/09/13 02:54:26;;;;;;;;;15.80;15.20;;;;;21.68;35.96;99158.97;5111625;27;8966;-79
2023/09/13 02:56:55;;;;;;;;;16.00;15.20;;;;;21.62;36.09;99159.44;5111146;27;8861;-75
2023/09/13 02:59:26;;;;;;;;;15.60;14.60;;;;;21.58;36.33;99163.28;5110956;27;8849;-75
2023/09/13 03:01:55;;;;;;;;;15.60;15.60;;;;;21.51;36.31;99167.34;5101693;28;8969;-75
2023/09/13 03:04:24;;;;;;;;;18.40;18.00;;;;;21.44;36.35;99158.91;5086607;28;8939;-77
2023/09/13 03:06:54;;;;;;;;;17.80;17.00;;;;;21.40;36.41;99155.59;5069729;28;9013;-74
2023/09/13 03:09:23;;;;;;;;;16.20;15.60;;;;;21.35;36.39;99147.09;5089812;28;8913;-76
2023/09/13 03:11:52;;;;;;;;;16.60;15.40;;;;;21.28;35.68;99153.84;5108778;28;8883;-75
2023/09/13 03:14:21;;;;;;;;;16.80;15.80;;;;;21.27;36.23;99160.13;5091303;28;8839;-75
2023/09/13 03:16:50;;;;;;;;;17.00;14.80;;;;;21.22;36.08;99156.94;5090317;28;8844;-75
2023/09/13 03:19:19;;;;;;;;;17.80;17.60;;;;;21.21;36.11;99160.56;5098896;27;8830;-74
2023/09/13 03:21:50;;;;;;;;;16.20;14.80;;;;;21.12;36.27;99148.72;5087130;28;8982;-77
2023/09/13 03:24:20;;;;;;;;;15.20;14.40;;;;;21.06;36.26;99158.03;5071239;28;9005;-73
2023/09/13 03:26:49;;;;;;;;;10.80;10.00;;;;;21.05;35.83;99159.00;5088330;28;8851;-77
2023/09/13 03:29:18;;;;;;;;;14.60;12.60;;;;;21.09;35.56;99158.75;5087995;28;8863;-75
2023/09/13 03:31:47;;;;;;;;;15.80;14.00;;;;;21.10;35.54;99163.16;5087983;28;8848;-77
2023/09/13 03:34:16;;;;;;;;;14.60;13.20;;;;;21.08;35.56;99157.91;5089076;28;8827;-74
2023/09/13 03:36:45;;;;;;;;;16.40;16.20;;;;;21.06;35.58;99163.34;5087403;27;8840;-75
2023/09/13 03:39:14;;;;;;;;;14.60;13.20;;;;;21.09;35.57;99162.31;5109710;28;8837;-76
2023/09/13 03:41:44;;;;;;;;;13.20;13.00;;;;;21.08;35.27;99170.44;5125137;27;8880;-74
2023/09/13 03:44:14;;;;;;;;;15.60;15.60;;;;;21.11;35.85;99167.56;5107833;28;8853;-74
2023/09/13 03:46:43;;;;;;;;;16.20;15.20;;;;;21.13;36.75;99173.63;5091043;28;8941;-76
2023/09/13 03:49:12;;;;;;;;;13.40;13.20;;;;;21.04;36.64;99164.44;5107928;28;8855;-74
2023/09/13 03:51:41;;;;;;;;;20.00;18.40;;;;;20.95;37.31;99173.94;5090775;28;8841;-75
2023/09/13 03:54:10;;;;;;;;;19.40;17.80;;;;;20.97;37.32;99169.34;5100797;28;9598;-74
2023/09/13 03:56:39;;;;;;;;;17.80;17.40;;;;;20.99;37.39;99178.16;5125042;27;8849;-76
2023/09/13 03:59:09;;;;;;;;;15.20;15.20;;;;;20.99;37.59;99166.56;5108135;28;8833;-76
2023/09/13 04:01:38;;;;;;;;;21.40;21.40;;;;;20.94;38.07;99176.75;5107986;28;8857;-76
2023/09/13 04:04:07;;;;;;;;;19.20;18.00;;;;;20.91;38.15;99174.25;5107888;28;8938;-75
2023/09/13 04:06:37;;;;;;;;;15.60;15.60;;;;;20.84;38.19;99169.34;5109922;28;8876;-80
2023/09/13 04:09:06;;;;;;;;;21.20;17.80;;;;;20.78;37.78;99163.56;5109386;28;8837;-76
2023/09/13 04:11:35;;;;;;;;;15.60;15.40;;;;;20.77;37.72;99170.72;5087240;27;8859;-76
2023/09/13 04:14:06;;;;;;;;;16.60;16.40;;;;;20.75;37.88;99171.81;5088918;28;8852;-75
2023/09/13 04:16:37;;;;;;;;;16.40;16.40;;;;;20.74;37.74;99168.25;5087227;28;8839;-75
2023/09/13 04:19:06;;;;;;;;;8.60;8.60;;;;;20.75;37.33;99172.66;5110324;28;8904;-77
2023/09/13 04:21:35;;;;;;;;;15.00;14.00;;;;;20.73;37.57;99173.72;5098070;28;8959;-74
2023/09/13 04:24:05;;;;;;;;;14.20;13.40;;;;;20.72;37.28;99172.84;5092189;28;8875;-75
2023/09/13 04:26:34;;;;;;;;;13.40;13.40;;;;;20.66;37.63;99168.78;5091472;28;8844;-75
2023/09/13 04:29:05;;;;;;;;;17.80;16.80;;;;;20.67;37.33;99169.63;5109912;28;8840;-74
2023/09/13 04:31:34;;;;;;;;;17.80;17.60;;;;;20.70;36.64;99173.94;5100055;28;9693;-78
2023/09/13 04:34:04;;;;;;;;;13.40;12.80;;;;;20.71;36.64;99180.97;5105081;28;8862;-76
2023/09/13 04:36:37;;;;;;;;;16.60;16.00;;;;;20.69;36.48;99181.09;5087739;28;8937;-76
2023/09/13 04:39:08;;;;;;;;;11.40;11.40;;;;;20.75;36.71;99185.16;5070992;28;8886;-76
2023/09/13 04:41:36;;;;;;;;;17.00;16.00;;;;;20.79;37.07;99190.19;5069294;28;8864;-76
2023/09/13 04:44:06;;;;;;;;;21.60;20.00;;;;;20.81;37.24;99179.38;5036226;28;8993;-75
2023/09/13 04:46:35;;;;;;;;;18.40;18.20;;;;;20.86;37.01;99186.13;5087132;28;8882;-75
2023/09/13 04:49:06;;;;;;;;;20.80;19.80;;;;;20.90;37.33;99188.56;5071599;28;8935;-74
2023/09/13 04:51:35;;;;;;;;;22.80;21.20;;;;;20.94;37.05;99185.63;5105724;28;8832;-75
2023/09/13 04:54:04;;;;;;;;;19.20;19.20;;;;;20.96;37.12;99186.38;5088444;28;8841;-76
2023/09/13 04:56:33;;;;;;;;;18.60;18.20;;;;;21.03;36.60;99190.31;5088577;28;8861;-75
2023/09/13 04:59:02;;;;;;;;;17.60;16.00;;;;;21.08;36.17;99194.47;5105336;28;8847;-78
2023/09/13 05:01:31;;;;;;;;;18.20;17.00;;;;;21.12;36.14;99190.63;5035817;28;8973;-75
2023/09/13 05:04:00;;;;;;;;;16.40;15.00;;;;;21.19;36.12;99191.91;5044012;28;8969;-76
2023/09/13 05:06:31;;;;;;;;;21.60;19.40;;;;;21.28;36.20;99193.94;5061347;28;8870;-75
2023/09/13 05:09:00;;;;;;;;;20.80;18.80;;;;;21.38;36.22;99196.78;5012392;28;8854;-76
2023/09/13 05:11:28;;;;;;;;;24.50;22.75;;;;;21.41;35.72;99188.56;5045115;28;8889;-75
2023/09/13 05:14:09;;;;;;;;;21.75;21.50;;;;;21.63;36.09;99195.91;5044874;28;9003;-75
2023/09/13 05:16:38;;;;;;;;;21.80;21.40;;;;;21.59;35.78;99197.94;5036674;28;8887;-77
2023/09/13 05:19:08;;;;;;;;;16.60;15.20;;;;;21.63;35.76;99194.09;5065189;28;8856;-75
2023/09/13 05:21:38;;;;;;;;;17.60;16.60;;;;;21.73;35.31;99198.75;5030148;28;9116;-76
2023/09/13 05:24:07;;;;;;;;;18.40;17.40;;;;;21.78;35.58;99197.44;5029345;28;8873;-77
2023/09/13 05:26:36;;;;;;;;;17.80;16.60;;;;;21.87;35.23;99198.59;5027617;28;8869;-76
2023/09/13 05:29:05;;;;;;;;;18.80;18.40;;;;;21.87;35.14;99211.16;5044644;28;8850;-75
2023/09/13 05:31:34;;;;;;;;;16.00;15.00;;;;;21.86;35.08;99212.09;5029536;28;8861;-74
2023/09/13 05:34:03;;;;;;;;;19.60;19.20;;;;;21.98;35.15;99211.22;5087285;28;8947;-75
2023/09/13 05:36:32;;;;;;;;;14.00;14.00;;;;;22.04;35.20;99216.09;5096231;28;8864;-73
2023/09/13 05:39:03;;;;;;;;;24.00;23.75;;;;;21.93;35.04;99214.19;5078032;28;8843;-75
2023/09/13 05:41:32;;;;;;;;;23.50;22.00;;;;;22.08;35.20;99211.38;5105647;28;9613;-74
2023/09/13 05:44:02;;;;;;;;;18.25;16.50;;;;;22.16;35.10;99207.13;5081392;28;8863;-74
2023/09/13 05:46:31;;;;;;;;;22.25;22.25;;;;;22.30;34.77;99205.31;5098529;28;8879;-74
2023/09/13 05:49:00;;;;;;;;;22.25;21.25;;;;;22.33;34.59;99210.41;5110669;28;8863;-76
2023/09/13 05:51:30;;;;;;;;;21.25;19.50;;;;;22.49;34.67;99208.28;5110519;28;9140;-73
2023/09/13 05:53:59;;;;;;;;;22.60;19.40;;;;;22.52;34.78;99213.38;5110685;28;8861;-75
2023/09/13 05:56:29;;;;;;;;;24.50;22.75;;;;;22.75;34.64;99208.09;5104645;28;8855;-74
2023/09/13 05:58:58;;;;;;;;;22.50;22.25;;;;;22.92;34.57;99214.84;5107531;28;8845;-74
2023/09/13 06:01:27;;;;;;;;;22.50;21.50;;;;;23.08;34.24;99217.22;5100779;28;8863;-74
2023/09/13 06:03:56;;;;;;;;;23.50;23.50;;;;;23.18;34.08;99212.81;5105205;28;10099;-75
2023/09/13 06:06:25;;;;;;;;;26.75;25.75;;;;;23.25;33.60;99219.41;5088480;28;8958;-75
2023/09/13 06:08:54;;;;;;;;;22.75;22.25;;;;;23.36;34.14;99213.19;5090087;28;8828;-74
2023/09/13 06:11:22;;;;;;;;;21.25;19.75;;;;;23.50;33.63;99223.66;5098610;27;8881;-74
2023/09/13 06:13:54;;;;;;;;;26.25;26.25;;;;;23.67;33.42;99226.84;5070892;28;8901;-75
2023/09/13 06:16:23;;;;;;;;;24.50;23.50;;;;;23.80;33.49;99229.41;5095686;28;8870;-74
2023/09/13 06:18:53;;;;;;;;;24.50;23.75;;;;;23.85;33.06;99230.72;5089705;28;11323;-77
2023/09/13 06:21:22;;;;;;;;;28.00;23.25;;;;;23.81;33.14;99236.47;5088105;28;8864;-72
2023/09/13 06:23:51;;;;;;;;;29.00;28.50;;;;;23.70;33.58;99240.88;5089445;28;10082;-75
2023/09/13 06:26:20;;;;;;;;;25.00;24.50;;;;;23.85;33.77;99240.63;5105124;28;8955;-77
2023/09/13 06:28:49;;;;;;;;;35.25;32.00;;;;;23.66;33.91;99238.56;5102698;28;8860;-73
2023/09/13 06:31:19;;;;;;;;;29.75;28.25;;;;;23.54;34.30;99238.56;5099936;27;10111;-73
2023/09/13 06:34:01;;;;;;;;;32.75;30.25;;;;;23.60;34.31;99239.91;5079254;28;8909;-77
2023/09/13 06:36:33;;;;;;;;;35.25;31.50;;;;;23.75;34.37;99237.81;5089732;28;8868;-75
2023/09/13 06:39:03;;;;;;;;;31.50;29.25;;;;;23.78;34.20;99241.09;5086888;28;8952;-77
2023/09/13 06:41:32;;;;;;;;;37.25;31.75;;;;;23.94;34.20;99239.84;5086538;28;8984;-76
2023/09/13 06:44:03;;;;;;;;;38.50;34.75;;;;;23.98;34.18;99241.31;5086585;28;8853;-76
2023/09/13 06:46:39;;;;;;;;;34.75;31.75;;;;;24.18;33.75;99249.59;5101074;28;8875;-77
2023/09/13 06:49:12;;;;;;;;;32.75;31.00;;;;;24.22;34.15;99249.19;5042329;28;9463;-77
2023/09/13 06:51:42;;;;;;;;;37.00;32.00;;;;;24.39;34.25;99245.09;5090188;28;8851;-74
2023/09/13 06:54:20;;;;;;;;;34.50;30.75;;;;;24.51;33.76;99249.47;5090945;28;8842;-75
2023/09/13 06:56:52;;;;;;;;;37.00;32.25;;;;;24.68;33.51;99252.53;5085785;28;8874;-76
2023/09/13 06:59:26;;;;;;;;;32.50;30.50;;;;;24.87;33.49;99258.09;5089189;27;8877;-77
2023/09/13 07:01:59;;;;;;;;;35.50;31.75;;;;;24.99;33.39;99252.66;5089833;28;8940;-77
2023/09/13 07:04:31;;;;;;;;;42.50;35.50;;;;;24.24;34.47;99257.13;5093542;27;8820;-75
2023/09/13 07:07:11;;;;;;;;;43.75;36.50;;;;;24.32;34.47;99251.97;5098424;27;8829;-74
2023/09/13 07:09:43;;;;;;;;;38.25;34.00;;;;;24.18;34.79;99258.50;5121413;27;8837;-75
2023/09/13 07:12:12;;;;;;;;;49.00;37.75;;;;;24.35;35.01;99254.41;5096251;28;8940;-80
2023/09/13 07:14:41;;;;;;;;;43.75;37.00;;;;;24.66;33.82;99262.56;5102815;28;8832;-76
2023/09/13 07:17:11;;;;;;;;;47.75;39.00;;;;;24.89;34.11;99264.19;5097147;28;8889;-74
2023/09/13 07:19:40;;;;;;;;;52.00;43.00;;;;;25.08;33.55;99260.78;5088909;27;8817;-76
2023/09/13 07:22:09;;;;;;;;;45.75;37.75;;;;;25.17;33.30;99261.84;5106197;28;8857;-75
2023/09/13 07:24:38;;;;;;;;;46.75;39.75;;;;;25.16;33.45;99275.41;5096796;28;8849;-77
2023/09/13 07:27:07;;;;;;;;;38.75;34.75;;;;;25.37;32.79;99268.19;5082937;28;8875;-75
2023/09/13 07:29:37;;;;;;;;;42.50;35.25;;;;;25.21;32.77;99271.34;5105392;28;8841;-71
2023/09/13 07:32:06;;;;;;;;;37.00;33.75;;;;;25.22;33.38;99273.03;5106058;28;8873;-71
2023/09/13 07:34:37;;;;;;;;;45.00;37.75;;;;;24.59;34.00;99274.84;5109936;28;8859;-75
2023/09/13 07:37:06;;;;;;;;;40.00;35.00;;;;;24.89;33.29;99279.50;5109010;28;8967;-73
2023/09/13 07:39:36;;;;;;;;;40.25;35.25;;;;;24.95;33.86;99278.13;5093658;28;8859;-74
2023/09/13 07:42:05;;;;;;;;;37.00;32.75;;;;;25.12;33.76;99270.28;5097535;28;9681;-73
2023/09/13 07:44:34;;;;;;;;;39.50;34.50;;;;;25.38;32.94;99269.03;5108989;28;8879;-73
2023/09/13 07:47:03;;;;;;;;;41.75;35.75;;;;;25.48;33.06;99273.47;5043312;28;8845;-74
2023/09/13 07:49:33;;;;;;;;;38.75;35.00;;;;;25.75;32.18;99271.16;5098036;28;8889;-74
2023/09/13 07:52:03;;;;;;;;;43.25;36.00;;;;;25.67;32.63;99279.94;5100777;28;8833;-73
2023/09/13 07:54:32;;;;;;;;;42.75;37.25;;;;;25.05;33.84;99282.56;5090420;28;8839;-75
2023/09/13 07:57:01;;;;;;;;;44.75;36.25;;;;;25.08;33.56;99284.97;5085489;28;8871;-76
2023/09/13 07:59:31;;;;;;;;;43.00;36.25;;;;;25.25;33.86;99271.94;5120858;27;8874;-72
2023/09/13 08:02:00;;;;;;;;;45.75;39.00;;;;;25.57;33.55;99276.31;5087809;28;9702;-76
2023/09/13 08:04:29;;;;;;;;;37.75;34.00;;;;;25.30;33.20;99273.22;5100718;28;8976;-74
2023/09/13 08:06:59;;;;;;;;;37.25;33.00;;;;;25.71;33.13;99279.50;5095910;28;9698;-73
2023/09/13 08:09:30;;;;;;;;;37.25;33.50;;;;;25.31;33.04;99287.53;5088075;28;8855;-76
2023/09/13 08:11:58;;;;;;;;;39.50;34.75;;;;;24.40;34.55;99288.97;5107513;28;8907;-78
2023/09/13 08:14:27;;;;;;;;;38.25;34.25;;;;;24.33;35.22;99285.91;5103214;28;8932;-76
2023/09/13 08:16:56;;;;;;;;;42.75;36.25;;;;;24.43;34.60;99283.31;5101571;28;8873;-77
2023/09/13 08:19:25;;;;;;;;;37.00;34.00;;;;;24.24;35.46;99281.31;5104140;28;8852;-78
2023/09/13 08:21:54;;;;;;;;;43.25;37.25;;;;;24.76;34.04;99279.69;5103969;28;8867;-78
2023/09/13 08:24:23;;;;;;;;;38.50;34.00;;;;;24.38;34.51;99280.16;5088764;28;8860;-75
2023/09/13 08:26:53;;;;;;;;;37.00;32.00;;;;;24.81;34.36;99282.84;5072927;28;8868;-77
2023/09/13 08:29:22;;;;;;;;;41.75;34.75;;;;;24.87;33.77;99278.78;5124025;28;8863;-79
2023/09/13 08:31:51;;;;;;;;;33.50;32.00;;;;;25.25;32.11;99280.84;5107435;28;8865;-76
2023/09/13 08:34:20;;;;;;;;;33.50;31.50;;;;;24.71;33.45;99276.47;5105617;28;9052;-71
2023/09/13 08:36:49;;;;;;;;;36.00;32.50;;;;;24.98;32.90;99283.22;5099879;28;8823;-70
2023/09/13 08:39:18;;;;;;;;;36.25;33.00;;;;;24.79;33.39;99284.78;5087603;28;8848;-73
2023/09/13 08:41:50;;;;;;;;;42.25;35.25;;;;;25.18;33.24;99287.72;5087825;28;8871;-72
2023/09/13 08:44:22;;;;;;;;;39.00;33.50;;;;;24.56;33.74;99289.38;5089057;28;9613;-79
2023/09/13 08:46:55;;;;;;;;;35.75;32.50;;;;;25.11;33.53;99287.44;5102767;28;8936;-77
2023/09/13 08:49:25;;;;;;;;;38.75;34.50;;;;;25.52;32.67;99285.66;5089229;28;8835;-76
2023/09/13 08:51:54;;;;;;;;;42.25;35.75;;;;;25.77;32.18;99282.66;5089038;28;8862;-78
2023/09/13 08:54:23;;;;;;;;;34.00;32.00;;;;;25.81;31.98;99278.69;5088447;28;8836;-77
2023/09/13 08:56:53;;;;;;;;;35.50;32.25;;;;;26.10;31.99;99281.50;5085741;28;8885;-77
2023/09/13 08:59:23;;;;;;;;;40.00;33.50;;;;;26.06;31.42;99278.25;5068353;27;8837;-77
2023/09/13 09:01:54;;;;;;;;;35.75;32.50;;;;;25.99;31.95;99287.84;5053172;28;8870;-77
2023/09/13 09:04:24;;;;;;;;;37.50;34.00;;;;;26.00;31.24;99281.50;5091277;28;8877;-77
2023/09/13 09:06:54;;;;;;;;;34.75;32.25;;;;;26.49;31.46;99284.25;5095293;28;8884;-75
2023/09/13 09:09:28;;;;;;;;;34.50;32.00;;;;;26.22;31.13;99291.16;5090838;28;8833;-77
2023/09/13 09:12:01;;;;;;;;;33.50;31.75;;;;;26.59;30.62;99284.25;5056980;28;8957;-78
2023/09/13 09:14:33;;;;;;;;;34.50;31.75;;;;;26.92;30.21;99282.13;5122559;27;8847;-76
2023/09/13 09:17:03;;;;;;;;;35.00;32.00;;;;;26.46;31.22;99282.72;5091951;28;8853;-78
2023/09/13 09:19:33;;;;;;;;;37.00;32.75;;;;;26.73;30.17;99289.22;5047864;28;8984;-77
2023/09/13 09:22:03;;;;;;;;;36.75;32.25;;;;;26.19;31.42;99283.38;5073665;28;8842;-76
2023/09/13 09:24:33;;;;;;;;;35.50;32.75;;;;;26.34;31.11;99289.19;5089222;28;8853;-78
2023/09/13 09:27:02;;;;;;;;;39.25;33.50;;;;;26.80;30.57;99284.97;5089451;28;8875;-78
2023/09/13 09:29:40;;;;;;;;;36.75;33.50;;;;;26.42;31.08;99286.66;5091542;28;8859;-77
2023/09/13 09:32:09;;;;;;;;;32.50;31.00;;;;;26.46;30.82;99290.78;5090595;28;8863;-80
2023/09/13 09:34:39;;;;;;;;;36.25;32.50;;;;;26.50;31.08;99287.81;5097620;28;8860;-77
2023/09/13 09:37:09;;;;;;;;;33.75;31.25;;;;;26.24;31.72;99288.31;5091718;28;8886;-76
2023/09/13 09:39:41;;;;;;;;;32.75;31.00;;;;;26.52;30.48;99293.94;5090013;28;8863;-77
2023/09/13 09:42:15;;;;;;;;;33.75;31.50;;;;;26.95;30.16;99287.22;5092059;28;8856;-74
2023/09/13 09:44:45;;;;;;;;;31.25;30.00;;;;;27.15;29.84;99290.75;5092201;28;8841;-80
2023/09/13 09:47:16;;;;;;;;;36.00;32.75;;;;;26.17;31.19;99297.94;5086659;28;8841;-79
2023/09/13 09:49:46;;;;;;;;;36.00;32.00;;;;;25.67;32.02;99296.91;5096775;28;9623;-73
2023/09/13 09:52:17;;;;;;;;;34.25;31.75;;;;;26.04;31.45;99298.19;5097829;28;8860;-73
2023/09/13 09:54:48;;;;;;;;;38.00;32.75;;;;;26.04;31.53;99293.69;5092142;28;8847;-80
2023/09/13 09:57:21;;;;;;;;;34.00;31.00;;;;;26.14;31.20;99293.69;5097340;28;8852;-76
2023/09/13 09:59:52;;;;;;;;;32.50;31.00;;;;;26.00;30.94;99291.38;5090170;28;8839;-72
2023/09/13 10:02:27;;;;;;;;;38.50;34.50;;;;;26.22;30.63;99293.00;5110248;28;9931;-76
2023/09/13 10:04:56;;;;;;;;;38.75;32.25;;;;;26.57;30.16;99287.13;5115292;27;8853;-74
2023/09/13 10:07:25;;;;;;;;;35.25;32.75;;;;;26.95;30.16;99285.38;5109310;28;8809;-77
2023/09/13 10:09:55;;;;;;;;;37.50;33.50;;;;;27.29;30.09;99287.63;5097672;28;8839;-75
2023/09/13 10:12:24;;;;;;;;;37.00;32.00;;;;;27.21;30.07;99287.47;5092417;28;9062;-76
2023/09/13 10:14:54;;;;;;;;;40.00;34.00;;;;;27.53;30.16;99284.38;5110045;28;8896;-76
2023/09/13 10:17:26;;;;;;;;;35.25;31.50;;;;;27.57;29.61;99277.75;5105385;28;8840;-74
2023/09/13 10:19:55;;;;;;;;;44.00;37.25;;;;;27.71;30.18;99278.25;5105694;28;8876;-73
2023/09/13 10:22:28;;;;;;;;;48.00;39.00;;;;;27.06;30.78;99273.59;5070097;28;9005;-76
2023/09/13 10:25:03;;;;;;;;;38.75;34.50;;;;;27.04;30.60;99281.84;5110800;28;8837;-74
2023/09/13 10:27:34;;;;;;;;;41.00;35.00;;;;;27.00;31.02;99269.59;5111104;28;8857;-77
2023/09/13 10:30:10;;;;;;;;;40.75;35.25;;;;;26.47;31.57;99276.34;5074661;28;8868;-82
2023/09/13 10:32:45;;;;;;;;;34.25;31.00;;;;;26.66;31.36;99282.69;5083633;28;8932;-73
2023/09/13 10:35:17;;;;;;;;;42.25;34.75;;;;;27.05;31.32;99274.59;5067929;28;9754;-78
2023/09/13 10:37:52;;;;;;;;;41.00;34.75;;;;;27.44;30.59;99275.34;5089289;27;8848;-77
2023/09/13 10:40:24;;;;;;;;;42.00;36.50;;;;;27.03;31.29;99277.44;5103767;28;9585;-75
2023/09/13 10:42:54;;;;;;;;;42.00;36.75;;;;;26.84;30.79;99272.06;5065973;28;8967;-74
2023/09/13 10:45:27;;;;;;;;;43.00;36.75;;;;;26.91;31.34;99267.78;5089835;28;8851;-76
2023/09/13 10:47:58;;;;;;;;;27.50;27.25;;;;;26.98;31.14;99276.97;5090551;28;8836;-77
2023/09/13 10:50:28;;;;;;;;;36.50;32.25;;;;;27.24;30.72;99268.31;5091175;28;8840;-76
2023/09/13 10:52:57;;;;;;;;;45.00;37.75;;;;;27.60;30.19;99268.47;5090843;28;8952;-76
2023/09/13 10:55:27;;;;;;;;;42.75;35.50;;;;;27.92;29.80;99259.94;5072662;28;8876;-77
2023/09/13 10:57:58;;;;;;;;;42.25;35.25;;;;;27.59;29.90;99266.78;5088282;28;8894;-73
2023/09/13 11:00:32;;;;;;;;;35.75;32.00;;;;;27.34;29.87;99273.66;5089283;28;8874;-75
2023/09/13 11:03:02;;;;;;;;;37.75;33.00;;;;;27.91;29.16;99268.19;5124784;27;8848;-75
2023/09/13 11:05:33;;;;;;;;;37.25;34.00;;;;;27.82;28.92;99264.56;5095524;27;8942;-74
2023/09/13 11:08:02;;;;;;;;;36.75;33.50;;;;;28.10;28.91;99261.81;5104203;27;9588;-77
2023/09/13 11:10:32;;;;;;;;;40.50;35.25;;;;;27.98;28.23;99255.78;5091031;27;8855;-75
2023/09/13 11:13:17;;;;;;;;;37.25;33.75;;;;;28.76;28.06;99258.78;5107340;27;8896;-75
2023/09/13 11:15:55;;;;;;;;;36.00;32.75;;;;;29.01;27.70;99258.09;5065733;28;8828;-75
2023/09/13 11:18:27;;;;;;;;;37.25;33.00;;;;;29.12;27.07;99258.69;5083466;28;8946;-75
2023/09/13 11:20:57;;;;;;;;;43.25;35.50;;;;;28.75;27.14;99265.19;5085142;28;8850;-74
2023/09/13 11:23:26;;;;;;;;;38.75;33.75;;;;;28.86;26.27;99263.22;5073008;28;8846;-76
2023/09/13 11:26:04;;;;;;;;;38.75;33.75;;;;;28.87;26.71;99262.22;5075786;28;8851;-75
2023/09/13 11:28:45;;;;;;;;;37.25;34.00;;;;;28.90;27.29;99264.63;5068346;28;8856;-75
2023/09/13 11:31:21;;;;;;;;;37.75;34.00;;;;;29.45;27.06;99258.06;5065133;28;8944;-75
2023/09/13 11:33:57;;;;;;;;;43.50;35.75;;;;;29.87;26.51;99255.38;5070461;28;8826;-78
2023/09/13 11:36:27;;;;;;;;;40.75;34.75;;;;;30.22;26.41;99255.31;5068829;28;8894;-75
2023/09/13 11:39:01;;;;;;;;;38.50;34.50;;;;;29.88;25.80;99256.25;5087489;28;8861;-77